الصفحة الرئيسية
METAR-TAF:

METAR-TAF

مطار :

مطار دالاس فورت ورث الدولي

دالاس / فورت وورث, تكساس, الولايات المتحدة

دائرة عرض: 32-53-49N, خط طول: 097-01-19W, ارتفاع: 183 متر

مراقبة الطقس الحالي

تاريخ ووقت الإصدار 12ساعات و 34 دقيقة قبل الساعة 04:53UTC
ريح 4 عقدة من الشمال/الشمال الشرقي
درجة الحرارة 26°درجة مئوية
الرطوبة 61%
ضغط 1016 hPa
الرؤية: 16.1 كم
سماء صافية

METAR: KDFW 210453Z 02004KT 10SM CLR 26/18 A3001 RMK AO2 SLP154 T02610183

زمن: 12:27 (17:27 UTC)

توقعات

تاريخ ووقت الإصدار 12ساعات و 7 دقيقة قبل الساعة 05:20UTC
التوقعات صالحة من21 الساعة 06 UTC إلى 22 الساعة 12 UTC
ريح 6 عقدة من الشمال
الرؤية: 10 كم
سماء صافية
من 22 الساعة 0200 UTC
ريح 5 عقدة من الشرق
الرؤية: 10 كم
غيوم متفرقة على ارتفاع 25000 قدم

TAF: KDFW 210520Z 2106/2212 01006KT P6SM SKC FM220200 08005KT P6SM SCT250

أرصاد الطقس والتوقعات من أكثر من 4000 مطار (تقارير الطقس للمطار METAR والتنبؤ بالطقس بالمطارTAF).

المحطات المتاحة هي النقط الصفراء والحمراء على الخريطة.

حرك المؤشر فوق النقطة لمعرفة اسم المحطة.

ثم انقر لمعرفة أرصاد وتوقعات الطقس.

لتغيير الخارطة: اضغط على الأزرار الخضراء مع رمز الصليب الأسود للتكبير. على الزر الأخضر مع شرطة للتصغير، أو على الأسهم الخضراء للخرائط المجاورة.


METAR-TAF: